JTM125 WIBB-VTBS
Flight info
| Callsign | JTM125 |
|---|---|
| Flight time | 2h 22m |
| Altitude | 38000 |
| Route | SALA1E SALAX N633 VKL G466 VKB M644 ALUMO Y12 ALEMI TUMG1C |
| Aircraft | B738/M-SDE2FGHIRWY/L |
Departure
| Time | 2026-05-07 10:06 |
|---|---|
| Airport | Sultan Syarif Kasim II International Airport / Roesmin Nurjadin AFB (WIBB) |
Arrival
| Time | 2026-05-07 12:28 |
|---|---|
| Airport | Suvarnabhumi Airport (VTBS) |
| Time | Latitude | Longitude | Altitude | Speed | Heading |
|---|---|---|---|---|---|
| 2026-05-07 09:45 | 0.46480 | 101.44679 | 140 ft | 0 kts | 91° |
| 2026-05-07 09:59 | 0.46480 | 101.44678 | 140 ft | 0 kts | 91° |
| 2026-05-07 09:59 | 0.46480 | 101.44665 | 140 ft | 2 kts | 91° |
| 2026-05-07 10:00 | 0.46481 | 101.44643 | 140 ft | 3 kts | 91° |
| 2026-05-07 10:00 | 0.46481 | 101.44621 | 140 ft | 0 kts | 91° |
| 2026-05-07 10:02 | 0.46496 | 101.44625 | 140 ft | 5 kts | 5° |
| 2026-05-07 10:02 | 0.46522 | 101.44614 | 141 ft | 3 kts | 310° |
| 2026-05-07 10:02 | 0.46548 | 101.44601 | 141 ft | 7 kts | 345° |
| 2026-05-07 10:03 | 0.46616 | 101.44592 | 142 ft | 9 kts | 335° |
| 2026-05-07 10:03 | 0.46629 | 101.44537 | 143 ft | 7 kts | 277° |
| 2026-05-07 10:03 | 0.46646 | 101.44476 | 143 ft | 9 kts | 336° |
| 2026-05-07 10:03 | 0.46712 | 101.44469 | 143 ft | 10 kts | 1° |
| 2026-05-07 10:04 | 0.46794 | 101.44471 | 143 ft | 11 kts | 2° |
| 2026-05-07 10:04 | 0.46877 | 101.44476 | 143 ft | 11 kts | 3° |
| 2026-05-07 10:04 | 0.46964 | 101.44476 | 141 ft | 12 kts | 2° |
| 2026-05-07 10:04 | 0.47053 | 101.44496 | 139 ft | 13 kts | 359° |
| 2026-05-07 10:05 | 0.47062 | 101.44482 | 139 ft | 1 kts | 189° |
| 2026-05-07 10:05 | 0.46988 | 101.44479 | 141 ft | 40 kts | 183° |
| 2026-05-07 10:05 | 0.46409 | 101.44460 | 140 ft | 124 kts | 182° |
| 2026-05-07 10:05 | 0.45290 | 101.44428 | 168 ft | 188 kts | 181° |
| 2026-05-07 10:06 | 0.43920 | 101.44373 | 873 ft | 204 kts | 183° |
| 2026-05-07 10:06 | 0.42531 | 101.44230 | 1859 ft | 210 kts | 190° |
| 2026-05-07 10:06 | 0.41131 | 101.43548 | 2468 ft | 239 kts | 221° |
| 2026-05-07 10:06 | 0.40210 | 101.42266 | 3673 ft | 234 kts | 246° |
| 2026-05-07 10:07 | 0.39801 | 101.40673 | 4607 ft | 240 kts | 261° |
| 2026-05-07 10:07 | 0.39726 | 101.39033 | 5533 ft | 245 kts | 280° |
| 2026-05-07 10:07 | 0.40452 | 101.37528 | 6542 ft | 244 kts | 315° |
| 2026-05-07 10:07 | 0.41892 | 101.36619 | 7165 ft | 256 kts | 344° |
| 2026-05-07 10:08 | 0.43691 | 101.36465 | 7775 ft | 268 kts | 9° |
| 2026-05-07 10:08 | 0.45523 | 101.37009 | 8346 ft | 283 kts | 22° |
| 2026-05-07 10:08 | 0.47390 | 101.37805 | 8931 ft | 298 kts | 24° |
| 2026-05-07 10:08 | 0.49318 | 101.38650 | 9533 ft | 311 kts | 24° |
| 2026-05-07 10:09 | 0.51357 | 101.39537 | 10083 ft | 326 kts | 24° |
| 2026-05-07 10:09 | 0.53470 | 101.40445 | 10670 ft | 339 kts | 24° |
| 2026-05-07 10:09 | 0.55695 | 101.41395 | 11220 ft | 353 kts | 24° |
| 2026-05-07 10:09 | 0.57983 | 101.42368 | 11950 ft | 360 kts | 24° |
| 2026-05-07 10:10 | 0.60307 | 101.43354 | 12771 ft | 364 kts | 24° |
| 2026-05-07 10:10 | 0.62643 | 101.44347 | 13549 ft | 368 kts | 24° |
| 2026-05-07 10:10 | 0.65040 | 101.45300 | 14368 ft | 371 kts | 20° |
| 2026-05-07 10:10 | 0.67566 | 101.45920 | 15129 ft | 379 kts | 11° |
| 2026-05-07 10:11 | 0.70214 | 101.46207 | 15851 ft | 385 kts | 5° |
| 2026-05-07 10:11 | 0.72903 | 101.46336 | 16609 ft | 388 kts | 4° |
| 2026-05-07 10:11 | 0.75597 | 101.46425 | 17313 ft | 392 kts | 4° |
| 2026-05-07 10:11 | 0.78377 | 101.46532 | 17948 ft | 398 kts | 5° |
| 2026-05-07 10:12 | 0.81158 | 101.46673 | 18601 ft | 401 kts | 5° |
| 2026-05-07 10:12 | 0.83952 | 101.46841 | 19201 ft | 406 kts | 6° |
| 2026-05-07 10:12 | 0.86775 | 101.47031 | 19829 ft | 410 kts | 6° |
| 2026-05-07 10:12 | 0.89636 | 101.47231 | 20394 ft | 415 kts | 6° |
| 2026-05-07 10:13 | 0.92532 | 101.47438 | 20977 ft | 419 kts | 6° |
| 2026-05-07 10:13 | 0.95466 | 101.47649 | 21521 ft | 423 kts | 6° |
| 2026-05-07 10:13 | 0.98442 | 101.47860 | 22093 ft | 426 kts | 6° |
| 2026-05-07 10:13 | 1.01403 | 101.48071 | 22625 ft | 430 kts | 6° |
| 2026-05-07 10:14 | 1.04442 | 101.48286 | 23136 ft | 435 kts | 6° |
| 2026-05-07 10:14 | 1.07445 | 101.48499 | 23639 ft | 439 kts | 6° |
| 2026-05-07 10:14 | 1.10541 | 101.48718 | 24148 ft | 443 kts | 6° |
| 2026-05-07 10:14 | 1.13629 | 101.48937 | 24653 ft | 447 kts | 6° |
| 2026-05-07 10:15 | 1.16766 | 101.49158 | 25156 ft | 451 kts | 6° |
| 2026-05-07 10:15 | 1.19869 | 101.49376 | 25718 ft | 452 kts | 6° |
| 2026-05-07 10:15 | 1.23025 | 101.49597 | 26406 ft | 450 kts | 6° |
| 2026-05-07 10:15 | 1.26141 | 101.49815 | 27041 ft | 450 kts | 6° |
| 2026-05-07 10:16 | 1.29272 | 101.50034 | 27682 ft | 449 kts | 6° |
| 2026-05-07 10:16 | 1.32406 | 101.50253 | 28294 ft | 448 kts | 6° |
| 2026-05-07 10:16 | 1.35499 | 101.50471 | 28920 ft | 447 kts | 6° |
| 2026-05-07 10:16 | 1.38580 | 101.50687 | 29604 ft | 444 kts | 6° |
| 2026-05-07 10:17 | 1.41655 | 101.50902 | 30288 ft | 441 kts | 6° |
| 2026-05-07 10:17 | 1.44721 | 101.51118 | 30931 ft | 438 kts | 5° |
| 2026-05-07 10:17 | 1.47747 | 101.51331 | 31509 ft | 437 kts | 5° |
| 2026-05-07 10:17 | 1.50790 | 101.51546 | 32019 ft | 437 kts | 5° |
| 2026-05-07 10:18 | 1.53812 | 101.51757 | 32557 ft | 436 kts | 5° |
| 2026-05-07 10:18 | 1.56864 | 101.51967 | 33193 ft | 433 kts | 5° |
| 2026-05-07 10:18 | 1.59842 | 101.52169 | 33802 ft | 431 kts | 5° |
| 2026-05-07 10:18 | 1.62832 | 101.52372 | 34382 ft | 429 kts | 5° |
| 2026-05-07 10:19 | 1.65813 | 101.52575 | 34917 ft | 428 kts | 5° |
| 2026-05-07 10:19 | 1.68822 | 101.52779 | 35413 ft | 427 kts | 5° |
| 2026-05-07 10:19 | 1.71772 | 101.52981 | 35856 ft | 427 kts | 5° |
| 2026-05-07 10:19 | 1.74758 | 101.53185 | 36273 ft | 428 kts | 5° |
| 2026-05-07 10:20 | 1.77774 | 101.53392 | 36330 ft | 436 kts | 5° |
| 2026-05-07 10:20 | 1.84059 | 101.53824 | 36500 ft | 450 kts | 5° |
| 2026-05-07 10:20 | 1.87238 | 101.54041 | 36616 ft | 456 kts | 4° |
| 2026-05-07 10:21 | 1.90463 | 101.54262 | 36733 ft | 462 kts | 5° |
| 2026-05-07 10:21 | 1.93730 | 101.54485 | 36850 ft | 466 kts | 4° |
| 2026-05-07 10:21 | 1.96996 | 101.54707 | 36964 ft | 466 kts | 4° |
| 2026-05-07 10:21 | 2.00257 | 101.54930 | 37143 ft | 467 kts | 4° |
| 2026-05-07 10:22 | 2.03533 | 101.55154 | 37657 ft | 465 kts | 4° |
| 2026-05-07 10:22 | 2.06774 | 101.55374 | 37780 ft | 468 kts | 4° |
| 2026-05-07 10:22 | 2.10048 | 101.55594 | 37780 ft | 467 kts | 4° |
| 2026-05-07 10:23 | 2.16535 | 101.56041 | 37782 ft | 463 kts | 6° |
| 2026-05-07 10:23 | 2.22918 | 101.57087 | 37782 ft | 464 kts | 15° |
| 2026-05-07 10:24 | 2.29165 | 101.58950 | 37782 ft | 463 kts | 19° |
| 2026-05-07 10:24 | 2.35234 | 101.61032 | 37783 ft | 463 kts | 20° |
| 2026-05-07 10:25 | 2.41331 | 101.63159 | 37769 ft | 457 kts | 20° |
| 2026-05-07 10:25 | 2.47273 | 101.65210 | 37769 ft | 451 kts | 20° |
| 2026-05-07 10:26 | 2.53269 | 101.67261 | 37774 ft | 455 kts | 20° |
| 2026-05-07 10:26 | 2.59269 | 101.69299 | 37770 ft | 454 kts | 20° |
| 2026-05-07 10:27 | 2.65303 | 101.71349 | 37776 ft | 453 kts | 20° |
| 2026-05-07 10:27 | 2.71316 | 101.73354 | 37777 ft | 454 kts | 18° |
| 2026-05-07 10:28 | 2.77481 | 101.74799 | 37782 ft | 455 kts | 12° |
| 2026-05-07 10:28 | 2.83747 | 101.75846 | 37782 ft | 455 kts | 11° |
| 2026-05-07 10:29 | 2.90023 | 101.76821 | 37789 ft | 457 kts | 11° |
| 2026-05-07 10:29 | 2.96328 | 101.77821 | 37792 ft | 457 kts | 11° |
| 2026-05-07 10:30 | 3.05810 | 101.79374 | 37806 ft | 456 kts | 11° |
| 2026-05-07 10:30 | 3.12099 | 101.80419 | 37817 ft | 454 kts | 11° |
| 2026-05-07 10:31 | 3.18360 | 101.81464 | 37834 ft | 454 kts | 11° |
| 2026-05-07 10:31 | 3.24607 | 101.82509 | 37833 ft | 453 kts | 11° |
| 2026-05-07 10:32 | 3.30835 | 101.83550 | 37846 ft | 453 kts | 11° |
| 2026-05-07 10:32 | 3.37068 | 101.84592 | 37859 ft | 454 kts | 11° |
| 2026-05-07 10:33 | 3.43343 | 101.85641 | 37870 ft | 452 kts | 11° |
| 2026-05-07 10:33 | 3.49559 | 101.86682 | 37870 ft | 452 kts | 11° |
| 2026-05-07 10:34 | 3.55774 | 101.87721 | 37871 ft | 451 kts | 11° |
| 2026-05-07 10:34 | 3.62010 | 101.88766 | 37867 ft | 451 kts | 11° |
| 2026-05-07 10:35 | 3.68237 | 101.89809 | 37853 ft | 451 kts | 11° |
| 2026-05-07 10:35 | 3.74423 | 101.90843 | 37843 ft | 449 kts | 11° |
| 2026-05-07 10:36 | 3.80647 | 101.91884 | 37817 ft | 448 kts | 11° |
| 2026-05-07 10:36 | 3.86829 | 101.92917 | 37810 ft | 449 kts | 11° |
| 2026-05-07 10:37 | 3.92980 | 101.93946 | 37796 ft | 448 kts | 11° |
| 2026-05-07 10:37 | 3.99185 | 101.94985 | 37781 ft | 447 kts | 11° |
| 2026-05-07 10:38 | 4.05319 | 101.96013 | 37779 ft | 447 kts | 11° |
| 2026-05-07 10:38 | 4.11512 | 101.97050 | 37778 ft | 447 kts | 11° |
| 2026-05-07 10:39 | 4.17687 | 101.98083 | 37775 ft | 447 kts | 11° |
| 2026-05-07 10:39 | 4.23849 | 101.99116 | 37783 ft | 447 kts | 11° |
| 2026-05-07 10:40 | 4.29992 | 102.00144 | 37790 ft | 446 kts | 11° |
| 2026-05-07 10:40 | 4.36131 | 102.01173 | 37796 ft | 446 kts | 11° |
| 2026-05-07 10:41 | 4.42263 | 102.02200 | 37803 ft | 446 kts | 11° |
| 2026-05-07 10:41 | 4.48406 | 102.03230 | 37810 ft | 446 kts | 11° |
| 2026-05-07 10:42 | 4.54497 | 102.04251 | 37815 ft | 445 kts | 10° |
| 2026-05-07 10:42 | 4.60632 | 102.05280 | 37816 ft | 446 kts | 11° |
| 2026-05-07 10:43 | 4.66786 | 102.06311 | 37808 ft | 445 kts | 11° |
| 2026-05-07 10:43 | 4.72916 | 102.07339 | 37805 ft | 446 kts | 11° |
| 2026-05-07 10:44 | 4.79054 | 102.08368 | 37802 ft | 446 kts | 11° |
| 2026-05-07 10:44 | 4.85218 | 102.09402 | 37795 ft | 445 kts | 10° |
| 2026-05-07 10:45 | 4.91308 | 102.10424 | 37788 ft | 446 kts | 10° |
| 2026-05-07 10:45 | 4.97444 | 102.11453 | 37787 ft | 446 kts | 10° |
| 2026-05-07 10:46 | 5.03598 | 102.12487 | 37783 ft | 446 kts | 11° |
| 2026-05-07 10:46 | 5.09735 | 102.13517 | 37780 ft | 446 kts | 10° |
| 2026-05-07 10:47 | 5.15916 | 102.14555 | 37781 ft | 447 kts | 10° |
| 2026-05-07 10:47 | 5.22028 | 102.15582 | 37784 ft | 447 kts | 10° |
| 2026-05-07 10:48 | 5.28212 | 102.16621 | 37783 ft | 447 kts | 10° |
| 2026-05-07 10:48 | 5.34353 | 102.17652 | 37780 ft | 448 kts | 10° |
| 2026-05-07 10:49 | 5.40507 | 102.18685 | 37784 ft | 449 kts | 10° |
| 2026-05-07 10:49 | 5.46690 | 102.19724 | 37780 ft | 448 kts | 10° |
| 2026-05-07 10:50 | 5.52847 | 102.20759 | 37779 ft | 448 kts | 10° |
| 2026-05-07 10:50 | 5.59030 | 102.21790 | 37782 ft | 450 kts | 10° |
| 2026-05-07 10:51 | 5.65239 | 102.22811 | 37788 ft | 450 kts | 10° |
| 2026-05-07 10:51 | 5.71430 | 102.23827 | 37787 ft | 450 kts | 10° |
| 2026-05-07 10:52 | 5.77632 | 102.24851 | 37777 ft | 450 kts | 10° |
| 2026-05-07 10:52 | 5.83822 | 102.25894 | 37773 ft | 450 kts | 10° |
| 2026-05-07 10:53 | 5.90010 | 102.26944 | 37769 ft | 449 kts | 10° |
| 2026-05-07 10:53 | 5.96167 | 102.27988 | 37778 ft | 450 kts | 10° |
| 2026-05-07 10:54 | 6.02371 | 102.29040 | 37780 ft | 452 kts | 10° |
| 2026-05-07 10:54 | 6.08582 | 102.30091 | 37777 ft | 452 kts | 10° |
| 2026-05-07 10:55 | 6.14849 | 102.31013 | 37772 ft | 452 kts | 6° |
| 2026-05-07 10:55 | 6.21134 | 102.30953 | 37772 ft | 453 kts | 355° |
| 2026-05-07 10:56 | 6.27424 | 102.30191 | 37770 ft | 453 kts | 353° |
| 2026-05-07 10:56 | 6.33680 | 102.29298 | 37767 ft | 453 kts | 353° |
| 2026-05-07 10:57 | 6.39964 | 102.28493 | 37764 ft | 453 kts | 354° |
| 2026-05-07 10:57 | 6.46222 | 102.27751 | 37763 ft | 454 kts | 354° |
| 2026-05-07 10:58 | 6.52538 | 102.27022 | 37763 ft | 454 kts | 354° |
| 2026-05-07 10:58 | 6.58822 | 102.26299 | 37764 ft | 454 kts | 354° |
| 2026-05-07 10:59 | 6.65156 | 102.25570 | 37764 ft | 454 kts | 354° |
| 2026-05-07 10:59 | 6.71431 | 102.24847 | 37770 ft | 454 kts | 354° |
| 2026-05-07 11:00 | 6.77750 | 102.24118 | 37775 ft | 454 kts | 354° |
| 2026-05-07 11:00 | 6.84049 | 102.23391 | 37776 ft | 454 kts | 354° |
| 2026-05-07 11:01 | 6.90360 | 102.22662 | 37779 ft | 456 kts | 354° |
| 2026-05-07 11:01 | 6.96650 | 102.21935 | 37780 ft | 455 kts | 354° |
| 2026-05-07 11:02 | 7.02987 | 102.21204 | 37779 ft | 454 kts | 354° |
| 2026-05-07 11:02 | 7.09325 | 102.20470 | 37782 ft | 455 kts | 354° |
| 2026-05-07 11:03 | 7.15631 | 102.19741 | 37779 ft | 454 kts | 354° |
| 2026-05-07 11:03 | 7.21952 | 102.19010 | 37781 ft | 455 kts | 354° |
| 2026-05-07 11:04 | 7.28269 | 102.18279 | 37781 ft | 456 kts | 354° |
| 2026-05-07 11:04 | 7.34661 | 102.17540 | 37783 ft | 455 kts | 354° |
| 2026-05-07 11:05 | 7.40948 | 102.16812 | 37780 ft | 455 kts | 354° |
| 2026-05-07 11:05 | 7.47304 | 102.16076 | 37782 ft | 455 kts | 354° |
| 2026-05-07 11:06 | 7.53651 | 102.15341 | 37782 ft | 456 kts | 354° |
| 2026-05-07 11:06 | 7.59968 | 102.14610 | 37783 ft | 455 kts | 354° |
| 2026-05-07 11:07 | 7.66256 | 102.13880 | 37780 ft | 454 kts | 354° |
| 2026-05-07 11:07 | 7.72604 | 102.13145 | 37772 ft | 455 kts | 354° |
| 2026-05-07 11:08 | 7.78909 | 102.12413 | 37768 ft | 454 kts | 354° |
| 2026-05-07 11:08 | 7.85214 | 102.11681 | 37772 ft | 456 kts | 354° |
| 2026-05-07 11:09 | 7.91568 | 102.10944 | 37783 ft | 457 kts | 354° |
| 2026-05-07 11:09 | 7.97923 | 102.10207 | 37782 ft | 457 kts | 354° |
| 2026-05-07 11:10 | 8.04253 | 102.09483 | 37782 ft | 456 kts | 355° |
| 2026-05-07 11:10 | 8.10616 | 102.08888 | 37779 ft | 455 kts | 356° |
| 2026-05-07 11:11 | 8.16956 | 102.08358 | 37781 ft | 454 kts | 356° |
| 2026-05-07 11:11 | 8.23250 | 102.07832 | 37780 ft | 454 kts | 356° |
| 2026-05-07 11:12 | 8.29575 | 102.07293 | 37782 ft | 455 kts | 356° |
| 2026-05-07 11:12 | 8.35885 | 102.06747 | 37779 ft | 454 kts | 355° |
| 2026-05-07 11:13 | 8.42198 | 102.06196 | 37779 ft | 454 kts | 355° |
| 2026-05-07 11:13 | 8.48504 | 102.05643 | 37781 ft | 453 kts | 355° |
| 2026-05-07 11:14 | 8.54791 | 102.05090 | 37780 ft | 453 kts | 355° |
| 2026-05-07 11:14 | 8.61117 | 102.04534 | 37779 ft | 454 kts | 355° |
| 2026-05-07 11:15 | 8.67435 | 102.03979 | 37781 ft | 454 kts | 355° |
| 2026-05-07 11:15 | 8.73764 | 102.03422 | 37779 ft | 454 kts | 355° |
| 2026-05-07 11:16 | 8.80077 | 102.02866 | 37782 ft | 454 kts | 355° |
| 2026-05-07 11:16 | 8.86383 | 102.02312 | 37781 ft | 455 kts | 355° |
| 2026-05-07 11:17 | 8.92752 | 102.01752 | 37781 ft | 457 kts | 355° |
| 2026-05-07 11:17 | 8.99107 | 102.01192 | 37780 ft | 457 kts | 355° |
| 2026-05-07 11:18 | 9.05471 | 102.00631 | 37782 ft | 456 kts | 355° |
| 2026-05-07 11:18 | 9.11818 | 102.00073 | 37783 ft | 456 kts | 354° |
| 2026-05-07 11:19 | 9.18149 | 101.99515 | 37781 ft | 456 kts | 354° |
| 2026-05-07 11:19 | 9.24509 | 101.98954 | 37790 ft | 455 kts | 354° |
| 2026-05-07 11:20 | 9.30818 | 101.98399 | 37794 ft | 454 kts | 354° |
| 2026-05-07 11:20 | 9.37145 | 101.97845 | 37787 ft | 455 kts | 354° |
| 2026-05-07 11:21 | 9.43514 | 101.97291 | 37782 ft | 456 kts | 355° |
| 2026-05-07 11:21 | 9.49871 | 101.96737 | 37781 ft | 455 kts | 355° |
| 2026-05-07 11:22 | 9.56198 | 101.96184 | 37780 ft | 455 kts | 355° |
| 2026-05-07 11:22 | 9.62537 | 101.95631 | 37783 ft | 455 kts | 355° |
| 2026-05-07 11:23 | 9.68870 | 101.95078 | 37782 ft | 455 kts | 354° |
| 2026-05-07 11:23 | 9.75192 | 101.94526 | 37784 ft | 454 kts | 354° |
| 2026-05-07 11:24 | 9.81496 | 101.93975 | 37783 ft | 455 kts | 354° |
| 2026-05-07 11:24 | 9.87874 | 101.93417 | 37782 ft | 454 kts | 354° |
| 2026-05-07 11:25 | 9.94189 | 101.92865 | 37782 ft | 454 kts | 354° |
| 2026-05-07 11:25 | 10.00558 | 101.92306 | 37781 ft | 455 kts | 355° |
| 2026-05-07 11:26 | 10.06891 | 101.91752 | 37781 ft | 454 kts | 355° |
| 2026-05-07 11:26 | 10.13180 | 101.91202 | 37780 ft | 453 kts | 354° |
| 2026-05-07 11:27 | 10.19468 | 101.90651 | 37781 ft | 452 kts | 354° |
| 2026-05-07 11:27 | 10.25802 | 101.90095 | 37781 ft | 452 kts | 355° |
| 2026-05-07 11:28 | 10.32054 | 101.89545 | 37780 ft | 451 kts | 355° |
| 2026-05-07 11:28 | 10.38346 | 101.88994 | 37780 ft | 452 kts | 355° |
| 2026-05-07 11:29 | 10.44623 | 101.88443 | 37782 ft | 450 kts | 355° |
| 2026-05-07 11:29 | 10.50881 | 101.87894 | 37792 ft | 450 kts | 355° |
| 2026-05-07 11:30 | 10.57165 | 101.87341 | 37801 ft | 451 kts | 355° |
| 2026-05-07 11:30 | 10.63404 | 101.86793 | 37796 ft | 449 kts | 355° |
| 2026-05-07 11:31 | 10.69711 | 101.86239 | 37794 ft | 448 kts | 355° |
| 2026-05-07 11:31 | 10.75961 | 101.85668 | 37793 ft | 451 kts | 354° |
| 2026-05-07 11:32 | 10.85234 | 101.83863 | 37794 ft | 451 kts | 348° |
| 2026-05-07 11:33 | 10.91380 | 101.82378 | 37796 ft | 452 kts | 348° |
| 2026-05-07 11:33 | 10.97532 | 101.80904 | 37798 ft | 453 kts | 348° |
| 2026-05-07 11:34 | 11.03679 | 101.79465 | 37797 ft | 453 kts | 348° |
| 2026-05-07 11:34 | 11.09880 | 101.78034 | 37798 ft | 455 kts | 348° |
| 2026-05-07 11:35 | 11.16066 | 101.76616 | 37797 ft | 454 kts | 348° |
| 2026-05-07 11:35 | 11.22249 | 101.75200 | 37792 ft | 454 kts | 348° |
| 2026-05-07 11:36 | 11.28411 | 101.73789 | 37786 ft | 452 kts | 348° |
| 2026-05-07 11:36 | 11.34577 | 101.72376 | 37785 ft | 453 kts | 348° |
| 2026-05-07 11:37 | 11.40773 | 101.70956 | 37782 ft | 455 kts | 348° |
| 2026-05-07 11:37 | 11.46954 | 101.69541 | 37780 ft | 455 kts | 348° |
| 2026-05-07 11:38 | 11.53161 | 101.68118 | 37781 ft | 455 kts | 348° |
| 2026-05-07 11:38 | 11.59363 | 101.66695 | 37781 ft | 455 kts | 348° |
| 2026-05-07 11:39 | 11.65549 | 101.65276 | 37782 ft | 454 kts | 347° |
| 2026-05-07 11:39 | 11.71735 | 101.63855 | 37781 ft | 454 kts | 347° |
| 2026-05-07 11:40 | 11.77945 | 101.62428 | 37781 ft | 455 kts | 347° |
| 2026-05-07 11:40 | 11.84176 | 101.60995 | 37782 ft | 456 kts | 347° |
| 2026-05-07 11:41 | 11.90409 | 101.59563 | 37784 ft | 460 kts | 347° |
| 2026-05-07 11:41 | 11.96685 | 101.58119 | 37790 ft | 458 kts | 348° |
| 2026-05-07 11:42 | 12.02925 | 101.56683 | 37800 ft | 457 kts | 348° |
| 2026-05-07 11:42 | 12.09140 | 101.55252 | 37804 ft | 456 kts | 347° |
| 2026-05-07 11:43 | 12.15342 | 101.53823 | 37804 ft | 455 kts | 347° |
| 2026-05-07 11:43 | 12.21562 | 101.52389 | 37803 ft | 456 kts | 347° |
| 2026-05-07 11:43 | 12.24668 | 101.51673 | 37675 ft | 452 kts | 347° |
| 2026-05-07 11:44 | 12.27709 | 101.50972 | 37156 ft | 448 kts | 347° |
| 2026-05-07 11:44 | 12.30779 | 101.50263 | 36577 ft | 444 kts | 347° |
| 2026-05-07 11:44 | 12.33806 | 101.49564 | 36012 ft | 440 kts | 347° |
| 2026-05-07 11:44 | 12.36800 | 101.48872 | 35409 ft | 437 kts | 348° |
| 2026-05-07 11:45 | 12.39763 | 101.48188 | 34901 ft | 432 kts | 348° |
| 2026-05-07 11:45 | 12.42697 | 101.47510 | 34291 ft | 429 kts | 348° |
| 2026-05-07 11:45 | 12.45580 | 101.46845 | 33753 ft | 425 kts | 348° |
| 2026-05-07 11:45 | 12.48454 | 101.46181 | 33081 ft | 424 kts | 348° |
| 2026-05-07 11:46 | 12.51372 | 101.45507 | 32192 ft | 428 kts | 348° |
| 2026-05-07 11:46 | 12.54267 | 101.44838 | 31313 ft | 433 kts | 348° |
| 2026-05-07 11:46 | 12.57219 | 101.44156 | 30407 ft | 438 kts | 348° |
| 2026-05-07 11:46 | 12.60195 | 101.43468 | 29575 ft | 440 kts | 348° |
| 2026-05-07 11:47 | 12.63164 | 101.42727 | 28911 ft | 438 kts | 346° |
| 2026-05-07 11:47 | 12.66078 | 101.41879 | 28347 ft | 434 kts | 345° |
| 2026-05-07 11:47 | 12.68961 | 101.40974 | 27774 ft | 431 kts | 344° |
| 2026-05-07 11:47 | 12.71830 | 101.40045 | 27190 ft | 428 kts | 344° |
| 2026-05-07 11:48 | 12.74659 | 101.39126 | 26593 ft | 426 kts | 344° |
| 2026-05-07 11:48 | 12.77462 | 101.38221 | 26027 ft | 422 kts | 344° |
| 2026-05-07 11:48 | 12.80280 | 101.37320 | 25441 ft | 420 kts | 345° |
| 2026-05-07 11:48 | 12.83062 | 101.36438 | 24851 ft | 417 kts | 345° |
| 2026-05-07 11:49 | 12.85846 | 101.35562 | 24307 ft | 413 kts | 345° |
| 2026-05-07 11:49 | 12.88591 | 101.34703 | 23721 ft | 411 kts | 345° |
| 2026-05-07 11:49 | 12.91295 | 101.33859 | 23168 ft | 408 kts | 345° |
| 2026-05-07 11:49 | 12.94004 | 101.33015 | 22578 ft | 406 kts | 345° |
| 2026-05-07 11:50 | 12.96703 | 101.32175 | 22012 ft | 404 kts | 345° |
| 2026-05-07 11:50 | 12.99398 | 101.31337 | 21488 ft | 401 kts | 345° |
| 2026-05-07 11:50 | 13.02075 | 101.30505 | 20976 ft | 397 kts | 345° |
| 2026-05-07 11:50 | 13.04717 | 101.29683 | 20459 ft | 394 kts | 345° |
| 2026-05-07 11:51 | 13.07307 | 101.28876 | 19942 ft | 391 kts | 345° |
| 2026-05-07 11:51 | 13.09938 | 101.28058 | 19424 ft | 388 kts | 345° |
| 2026-05-07 11:51 | 13.12519 | 101.27255 | 18895 ft | 385 kts | 345° |
| 2026-05-07 11:51 | 13.15078 | 101.26459 | 18368 ft | 382 kts | 345° |
| 2026-05-07 11:52 | 13.17611 | 101.25669 | 17823 ft | 379 kts | 344° |
| 2026-05-07 11:52 | 13.20106 | 101.24891 | 17299 ft | 376 kts | 344° |
| 2026-05-07 11:52 | 13.22602 | 101.24113 | 16765 ft | 373 kts | 344° |
| 2026-05-07 11:52 | 13.25108 | 101.23331 | 16203 ft | 371 kts | 344° |
| 2026-05-07 11:53 | 13.27560 | 101.22566 | 15681 ft | 368 kts | 344° |
| 2026-05-07 11:53 | 13.29994 | 101.21806 | 15152 ft | 365 kts | 344° |
| 2026-05-07 11:53 | 13.32373 | 101.20891 | 14585 ft | 364 kts | 335° |
| 2026-05-07 11:53 | 13.34445 | 101.19444 | 14061 ft | 362 kts | 316° |
| 2026-05-07 11:54 | 13.35885 | 101.17343 | 13531 ft | 360 kts | 295° |
| 2026-05-07 11:54 | 13.36611 | 101.14896 | 13000 ft | 357 kts | 282° |
| 2026-05-07 11:54 | 13.37102 | 101.12421 | 12420 ft | 356 kts | 281° |
| 2026-05-07 11:54 | 13.37592 | 101.09952 | 11878 ft | 354 kts | 282° |
| 2026-05-07 11:55 | 13.38095 | 101.07471 | 11366 ft | 351 kts | 282° |
| 2026-05-07 11:55 | 13.38591 | 101.05071 | 11021 ft | 345 kts | 282° |
| 2026-05-07 11:55 | 13.39092 | 101.02663 | 10993 ft | 346 kts | 282° |
| 2026-05-07 11:55 | 13.39604 | 101.00214 | 10983 ft | 349 kts | 282° |
| 2026-05-07 11:56 | 13.40113 | 100.97780 | 10990 ft | 348 kts | 282° |
| 2026-05-07 11:56 | 13.40620 | 100.95357 | 10989 ft | 348 kts | 282° |
| 2026-05-07 11:56 | 13.41135 | 100.92934 | 10988 ft | 348 kts | 284° |
| 2026-05-07 11:56 | 13.41875 | 100.90579 | 10983 ft | 348 kts | 295° |
| 2026-05-07 11:57 | 13.43257 | 100.88560 | 10991 ft | 345 kts | 318° |
| 2026-05-07 11:57 | 13.45180 | 100.87077 | 10994 ft | 344 kts | 328° |
| 2026-05-07 11:57 | 13.47242 | 100.85798 | 10986 ft | 343 kts | 331° |
| 2026-05-07 11:57 | 13.49315 | 100.84570 | 10989 ft | 343 kts | 331° |
| 2026-05-07 11:58 | 13.51365 | 100.83330 | 10990 ft | 343 kts | 330° |
| 2026-05-07 11:58 | 13.53443 | 100.82141 | 10988 ft | 341 kts | 336° |
| 2026-05-07 11:58 | 13.55619 | 100.81349 | 10983 ft | 320 kts | 352° |
| 2026-05-07 11:58 | 13.57766 | 100.81386 | 10997 ft | 300 kts | 13° |
| 2026-05-07 11:59 | 13.59783 | 100.81930 | 10994 ft | 298 kts | 19° |
| 2026-05-07 11:59 | 13.61776 | 100.82574 | 10989 ft | 298 kts | 20° |
| 2026-05-07 11:59 | 13.63747 | 100.83192 | 10957 ft | 295 kts | 19° |
| 2026-05-07 11:59 | 13.65710 | 100.83767 | 10876 ft | 282 kts | 18° |
| 2026-05-07 12:00 | 13.67560 | 100.84283 | 10777 ft | 270 kts | 17° |
| 2026-05-07 12:00 | 13.69363 | 100.84776 | 10590 ft | 263 kts | 17° |
| 2026-05-07 12:00 | 13.71112 | 100.85255 | 10286 ft | 261 kts | 17° |
| 2026-05-07 12:00 | 13.72868 | 100.85736 | 9965 ft | 259 kts | 17° |
| 2026-05-07 12:01 | 13.74619 | 100.86216 | 9639 ft | 258 kts | 17° |
| 2026-05-07 12:01 | 13.76356 | 100.86692 | 9328 ft | 257 kts | 17° |
| 2026-05-07 12:01 | 13.78073 | 100.87162 | 9011 ft | 255 kts | 17° |
| 2026-05-07 12:01 | 13.79805 | 100.87636 | 8697 ft | 254 kts | 17° |
| 2026-05-07 12:02 | 13.81491 | 100.88098 | 8381 ft | 253 kts | 17° |
| 2026-05-07 12:02 | 13.83193 | 100.88567 | 8081 ft | 252 kts | 17° |
| 2026-05-07 12:02 | 13.84888 | 100.89034 | 7781 ft | 250 kts | 17° |
| 2026-05-07 12:02 | 13.86575 | 100.89500 | 7463 ft | 250 kts | 17° |
| 2026-05-07 12:03 | 13.88259 | 100.89967 | 7153 ft | 249 kts | 17° |
| 2026-05-07 12:03 | 13.89929 | 100.90427 | 6840 ft | 249 kts | 17° |
| 2026-05-07 12:03 | 13.91616 | 100.90891 | 6531 ft | 248 kts | 17° |
| 2026-05-07 12:03 | 13.93287 | 100.91351 | 6222 ft | 247 kts | 17° |
| 2026-05-07 12:04 | 13.94938 | 100.91807 | 5934 ft | 246 kts | 17° |
| 2026-05-07 12:04 | 13.96613 | 100.92186 | 5638 ft | 246 kts | 7° |
| 2026-05-07 12:04 | 13.98275 | 100.92007 | 5543 ft | 239 kts | 339° |
| 2026-05-07 12:04 | 13.99614 | 100.91032 | 5466 ft | 230 kts | 311° |
| 2026-05-07 12:05 | 14.00238 | 100.90140 | 5417 ft | 224 kts | 300° |
| 2026-05-07 12:05 | 14.00828 | 100.88682 | 5333 ft | 216 kts | 280° |
| 2026-05-07 12:05 | 14.00790 | 100.87183 | 5257 ft | 208 kts | 253° |
| 2026-05-07 12:05 | 14.00241 | 100.85826 | 5206 ft | 204 kts | 238° |
| 2026-05-07 12:06 | 13.99391 | 100.84722 | 5060 ft | 196 kts | 218° |
| 2026-05-07 12:06 | 13.98215 | 100.83981 | 4755 ft | 197 kts | 203° |
| 2026-05-07 12:06 | 13.96930 | 100.83464 | 4471 ft | 198 kts | 197° |
| 2026-05-07 12:06 | 13.95613 | 100.83048 | 4201 ft | 198 kts | 194° |
| 2026-05-07 12:07 | 13.94303 | 100.82684 | 4073 ft | 190 kts | 193° |
| 2026-05-07 12:07 | 13.93053 | 100.82351 | 4001 ft | 178 kts | 193° |
| 2026-05-07 12:07 | 13.91892 | 100.82046 | 3928 ft | 165 kts | 193° |
| 2026-05-07 12:07 | 13.90813 | 100.81762 | 3850 ft | 150 kts | 193° |
| 2026-05-07 12:08 | 13.89833 | 100.81506 | 3641 ft | 143 kts | 194° |
| 2026-05-07 12:08 | 13.88902 | 100.81262 | 3704 ft | 134 kts | 194° |
| 2026-05-07 12:08 | 13.87955 | 100.81014 | 3817 ft | 146 kts | 194° |
| 2026-05-07 12:08 | 13.86936 | 100.80748 | 3593 ft | 152 kts | 194° |
| 2026-05-07 12:09 | 13.85917 | 100.80481 | 3266 ft | 152 kts | 195° |
| 2026-05-07 12:09 | 13.84914 | 100.80218 | 3072 ft | 144 kts | 195° |
| 2026-05-07 12:09 | 13.83950 | 100.79967 | 2905 ft | 141 kts | 195° |
| 2026-05-07 12:09 | 13.82996 | 100.79716 | 2714 ft | 140 kts | 195° |
| 2026-05-07 12:10 | 13.82055 | 100.79469 | 2527 ft | 138 kts | 195° |
| 2026-05-07 12:10 | 13.81117 | 100.79224 | 2343 ft | 138 kts | 195° |
| 2026-05-07 12:10 | 13.80193 | 100.78982 | 2158 ft | 135 kts | 194° |
| 2026-05-07 12:10 | 13.79274 | 100.78741 | 1983 ft | 135 kts | 194° |
| 2026-05-07 12:11 | 13.78377 | 100.78507 | 1808 ft | 133 kts | 194° |
| 2026-05-07 12:11 | 13.77471 | 100.78269 | 1636 ft | 135 kts | 194° |
| 2026-05-07 12:11 | 13.76554 | 100.78030 | 1454 ft | 135 kts | 194° |
| 2026-05-07 12:11 | 13.75638 | 100.77789 | 1281 ft | 137 kts | 194° |
| 2026-05-07 12:12 | 13.74708 | 100.77546 | 1102 ft | 136 kts | 194° |
| 2026-05-07 12:12 | 13.73798 | 100.77308 | 929 ft | 136 kts | 193° |
| 2026-05-07 12:12 | 13.72859 | 100.77071 | 744 ft | 138 kts | 192° |
| 2026-05-07 12:12 | 13.71940 | 100.76851 | 604 ft | 135 kts | 191° |
| 2026-05-07 12:13 | 13.71009 | 100.76599 | 394 ft | 136 kts | 194° |
| 2026-05-07 12:13 | 13.70087 | 100.76334 | 207 ft | 136 kts | 193° |
| 2026-05-07 12:13 | 13.69181 | 100.76102 | 36 ft | 135 kts | 191° |
| 2026-05-07 12:13 | 13.68265 | 100.75904 | 144 ft | 139 kts | 190° |
| 2026-05-07 12:14 | 13.67335 | 100.75738 | 970 ft | 144 kts | 188° |
| 2026-05-07 12:14 | 13.66365 | 100.75601 | 1843 ft | 143 kts | 188° |
| 2026-05-07 12:14 | 13.65332 | 100.75465 | 2402 ft | 160 kts | 187° |
| 2026-05-07 12:14 | 13.64163 | 100.75309 | 2932 ft | 183 kts | 187° |
| 2026-05-07 12:15 | 13.62831 | 100.75308 | 3559 ft | 206 kts | 163° |
| 2026-05-07 12:15 | 13.61677 | 100.76182 | 4365 ft | 221 kts | 120° |
| 2026-05-07 12:15 | 13.61226 | 100.77672 | 5000 ft | 224 kts | 94° |
| 2026-05-07 12:15 | 13.61341 | 100.79265 | 5006 ft | 223 kts | 76° |
| 2026-05-07 12:16 | 13.61908 | 100.80710 | 5009 ft | 217 kts | 59° |
| 2026-05-07 12:16 | 13.62759 | 100.81989 | 5006 ft | 217 kts | 56° |
| 2026-05-07 12:16 | 13.63608 | 100.83295 | 5010 ft | 225 kts | 59° |
| 2026-05-07 12:16 | 13.64490 | 100.84782 | 5005 ft | 260 kts | 60° |
| 2026-05-07 12:17 | 13.65431 | 100.86420 | 4998 ft | 268 kts | 60° |
| 2026-05-07 12:17 | 13.66373 | 100.88068 | 4999 ft | 269 kts | 60° |
| 2026-05-07 12:17 | 13.67326 | 100.89732 | 5002 ft | 269 kts | 60° |
| 2026-05-07 12:17 | 13.68284 | 100.91401 | 5001 ft | 269 kts | 60° |
| 2026-05-07 12:18 | 13.69226 | 100.93041 | 5001 ft | 269 kts | 60° |
| 2026-05-07 12:18 | 13.70178 | 100.94698 | 5000 ft | 270 kts | 60° |
| 2026-05-07 12:18 | 13.71146 | 100.96371 | 4999 ft | 270 kts | 58° |
| 2026-05-07 12:18 | 13.72313 | 100.97894 | 4994 ft | 270 kts | 42° |
| 2026-05-07 12:19 | 13.73955 | 100.98814 | 5008 ft | 273 kts | 19° |
| 2026-05-07 12:19 | 13.75810 | 100.99281 | 5000 ft | 274 kts | 13° |
| 2026-05-07 12:19 | 13.77679 | 100.99668 | 4993 ft | 273 kts | 13° |
| 2026-05-07 12:19 | 13.79567 | 101.00098 | 4988 ft | 274 kts | 14° |
| 2026-05-07 12:20 | 13.81413 | 101.00556 | 4985 ft | 274 kts | 13° |
| 2026-05-07 12:20 | 13.83309 | 101.00802 | 4976 ft | 276 kts | 359° |
| 2026-05-07 12:20 | 13.85178 | 101.00265 | 4977 ft | 279 kts | 330° |
| 2026-05-07 12:20 | 13.86585 | 100.98884 | 4972 ft | 281 kts | 304° |
| 2026-05-07 12:21 | 13.87329 | 100.97076 | 4901 ft | 271 kts | 283° |
| 2026-05-07 12:21 | 13.87507 | 100.95196 | 4811 ft | 260 kts | 267° |
| 2026-05-07 12:21 | 13.87303 | 100.93380 | 4729 ft | 249 kts | 261° |
| 2026-05-07 12:21 | 13.87018 | 100.91668 | 4641 ft | 239 kts | 260° |
| 2026-05-07 12:22 | 13.86755 | 100.90011 | 4573 ft | 230 kts | 261° |
| 2026-05-07 12:22 | 13.86528 | 100.88421 | 4485 ft | 221 kts | 262° |
| 2026-05-07 12:22 | 13.86319 | 100.86885 | 4407 ft | 213 kts | 262° |
| 2026-05-07 12:22 | 13.86120 | 100.85407 | 4349 ft | 201 kts | 262° |
| 2026-05-07 12:23 | 13.85932 | 100.84031 | 4278 ft | 189 kts | 262° |
| 2026-05-07 12:23 | 13.85751 | 100.82722 | 4068 ft | 182 kts | 262° |
| 2026-05-07 12:23 | 13.85517 | 100.81458 | 3639 ft | 181 kts | 251° |
| 2026-05-07 12:23 | 13.84818 | 100.80422 | 3205 ft | 176 kts | 213° |
| 2026-05-07 12:24 | 13.83718 | 100.79967 | 2869 ft | 166 kts | 195° |
| 2026-05-07 12:24 | 13.82659 | 100.79656 | 2633 ft | 150 kts | 195° |
| 2026-05-07 12:24 | 13.81704 | 100.79384 | 2483 ft | 138 kts | 194° |
| 2026-05-07 12:24 | 13.80758 | 100.79133 | 2273 ft | 139 kts | 194° |
| 2026-05-07 12:25 | 13.79821 | 100.78885 | 2081 ft | 135 kts | 194° |
| 2026-05-07 12:25 | 13.78906 | 100.78645 | 1909 ft | 136 kts | 194° |
| 2026-05-07 12:25 | 13.77999 | 100.78408 | 1735 ft | 133 kts | 194° |
| 2026-05-07 12:25 | 13.77091 | 100.78176 | 1557 ft | 134 kts | 194° |
| 2026-05-07 12:26 | 13.76183 | 100.77934 | 1384 ft | 135 kts | 194° |
| 2026-05-07 12:26 | 13.75275 | 100.77694 | 1212 ft | 134 kts | 194° |
| 2026-05-07 12:26 | 13.74361 | 100.77457 | 1035 ft | 134 kts | 194° |
| 2026-05-07 12:26 | 13.73448 | 100.77221 | 866 ft | 135 kts | 193° |
| 2026-05-07 12:27 | 13.72539 | 100.76990 | 678 ft | 136 kts | 194° |
| 2026-05-07 12:27 | 13.71621 | 100.76726 | 505 ft | 135 kts | 193° |
| 2026-05-07 12:27 | 13.70697 | 100.76515 | 325 ft | 136 kts | 193° |
| 2026-05-07 12:27 | 13.69779 | 100.76266 | 161 ft | 135 kts | 192° |
| 2026-05-07 12:28 | 13.68873 | 100.76025 | 30 ft | 132 kts | 193° |
| 2026-05-07 12:28 | 13.68062 | 100.75819 | 11 ft | 98 kts | 197° |
| 2026-05-07 12:28 | 13.67684 | 100.75719 | 11 ft | 16 kts | 195° |
| 2026-05-07 12:28 | 13.67665 | 100.75712 | 11 ft | 5 kts | 206° |
| 2026-05-07 12:29 | 13.67590 | 100.75669 | 11 ft | 18 kts | 215° |
| 2026-05-07 12:29 | 13.67503 | 100.75597 | 11 ft | 0 kts | 225° |
| 2026-05-07 12:30 | 13.67484 | 100.75577 | 11 ft | 8 kts | 229° |
| 2026-05-07 12:30 | 13.67447 | 100.75507 | 11 ft | 12 kts | 279° |
| 2026-05-07 12:30 | 13.67510 | 100.75473 | 11 ft | 11 kts | 10° |
| 2026-05-07 12:31 | 13.67588 | 100.75494 | 11 ft | 11 kts | 14° |
| 2026-05-07 12:31 | 13.67667 | 100.75515 | 11 ft | 12 kts | 14° |
| 2026-05-07 12:31 | 13.67793 | 100.75548 | 11 ft | 25 kts | 14° |
| 2026-05-07 12:31 | 13.67983 | 100.75599 | 11 ft | 28 kts | 13° |
| 2026-05-07 12:32 | 13.68169 | 100.75648 | 12 ft | 25 kts | 15° |
| 2026-05-07 12:32 | 13.68334 | 100.75691 | 14 ft | 20 kts | 13° |
| 2026-05-07 12:32 | 13.68438 | 100.75672 | 14 ft | 14 kts | 276° |
| 2026-05-07 12:32 | 13.68474 | 100.75573 | 14 ft | 15 kts | 287° |
| 2026-05-07 12:33 | 13.68578 | 100.75455 | 14 ft | 12 kts | 15° |
| 2026-05-07 12:33 | 13.68625 | 100.75415 | 14 ft | 7 kts | 291° |
| 2026-05-07 12:33 | 13.68638 | 100.75375 | 14 ft | 0 kts | 285° |